createdAt,value
2019-05-17T00:00:39.550Z,3.42
2019-05-17T00:03:06.929Z,3.40
2019-05-17T00:05:34.173Z,3.12
2019-05-17T00:08:00.609Z,3.50
2019-05-17T00:10:27.001Z,4.08
2019-05-17T00:12:56.288Z,4.80
2019-05-17T00:15:22.575Z,3.05
2019-05-17T00:17:49.023Z,3.55
2019-05-17T00:20:17.338Z,3.58
2019-05-17T00:22:43.713Z,3.20
2019-05-17T00:25:10.171Z,2.45
2019-05-17T00:27:36.832Z,2.85
2019-05-17T00:30:07.667Z,2.15
2019-05-17T00:32:34.093Z,2.63
2019-05-17T00:35:02.104Z,2.25
2019-05-17T00:37:28.612Z,2.40
2019-05-17T00:39:56.727Z,2.47
2019-05-17T00:42:23.241Z,1.80
2019-05-17T00:44:49.612Z,2.05
2019-05-17T00:47:17.598Z,1.45
2019-05-17T00:49:46.347Z,2.02
2019-05-17T00:52:12.191Z,1.57
2019-05-17T00:54:38.462Z,1.00
2019-05-17T00:57:07.514Z,2.05
2019-05-17T00:59:34.048Z,1.70
2019-05-17T01:02:00.712Z,1.85
2019-05-17T01:04:27.616Z,1.80
2019-05-17T01:06:56.286Z,2.47
2019-05-17T01:09:22.775Z,3.08
2019-05-17T01:11:49.245Z,2.40
2019-05-17T01:14:17.544Z,3.67
2019-05-17T01:16:43.817Z,3.60
2019-05-17T01:19:12.010Z,4.65
2019-05-17T01:21:38.382Z,4.87
2019-05-17T01:24:06.650Z,4.95
2019-05-17T01:26:32.974Z,4.00
2019-05-17T01:29:06.897Z,5.10
2019-05-17T01:31:46.450Z,3.45
2019-05-17T01:34:13.201Z,4.40
2019-05-17T01:36:39.721Z,4.37
2019-05-17T01:39:17.044Z,4.97
2019-05-17T01:41:34.261Z,5.03
2019-05-17T01:44:00.554Z,4.55
2019-05-17T01:46:27.936Z,4.72
2019-05-17T01:48:54.336Z,3.37
2019-05-17T01:51:20.746Z,3.95
2019-05-17T01:53:47.389Z,5.17
2019-05-17T01:56:13.831Z,3.83
2019-05-17T01:58:40.221Z,4.20
2019-05-17T02:01:07.596Z,4.42
2019-05-17T02:03:34.285Z,5.08
2019-05-17T02:06:00.674Z,3.60
2019-05-17T02:08:27.800Z,4.87
2019-05-17T02:10:54.282Z,5.05
2019-05-17T02:13:20.632Z,4.65
2019-05-17T02:15:47.342Z,5.35
2019-05-17T02:18:13.715Z,4.62
2019-05-17T02:20:40.055Z,4.58
2019-05-17T02:23:07.260Z,4.62
2019-05-17T02:25:33.932Z,4.72
2019-05-17T02:28:01.534Z,4.55
2019-05-17T02:30:28.254Z,4.10
2019-05-17T02:32:56.476Z,4.80
2019-05-17T02:35:23.235Z,5.00
2019-05-17T02:37:53.450Z,4.87
2019-05-17T02:40:19.038Z,5.72
2019-05-17T02:42:45.451Z,4.62
2019-05-17T02:45:13.334Z,5.30
2019-05-17T02:47:43.375Z,5.53
2019-05-17T02:50:08.361Z,5.58
2019-05-17T02:52:34.936Z,5.22
2019-05-17T02:55:04.133Z,4.75
2019-05-17T02:57:29.972Z,6.15
2019-05-17T02:59:57.396Z,5.65
2019-05-17T03:02:28.018Z,4.80
2019-05-17T03:04:54.674Z,4.87
2019-05-17T03:07:23.217Z,4.67
2019-05-17T03:09:49.240Z,4.12
2019-05-17T03:12:16.338Z,4.37
2019-05-17T03:14:43.350Z,4.37
2019-05-17T03:17:09.856Z,5.78
2019-05-17T03:19:37.248Z,5.40
2019-05-17T03:22:07.483Z,4.97
2019-05-17T03:24:33.271Z,4.92
2019-05-17T03:27:02.835Z,3.77
2019-05-17T03:29:28.130Z,4.08
2019-05-17T03:31:59.925Z,3.90
2019-05-17T03:34:26.469Z,3.37
2019-05-17T03:36:56.375Z,3.92
2019-05-17T03:39:22.645Z,3.77
2019-05-17T03:41:49.487Z,2.37
2019-05-17T03:44:16.070Z,2.80
2019-05-17T03:46:42.728Z,2.67
2019-05-17T03:49:09.301Z,3.75
2019-05-17T03:51:35.721Z,3.12
2019-05-17T03:54:02.595Z,3.17
2019-05-17T03:56:29.201Z,2.70
2019-05-17T03:58:55.618Z,2.58
2019-05-17T04:01:23.240Z,3.87
2019-05-17T04:03:53.006Z,3.12
2019-05-17T04:06:19.123Z,3.17
2019-05-17T04:08:45.468Z,2.87
2019-05-17T04:11:22.484Z,3.22
2019-05-17T04:13:42.831Z,2.35
2019-05-17T04:16:09.425Z,2.75
2019-05-17T04:18:36.804Z,3.45
2019-05-17T04:21:03.628Z,2.98
2019-05-17T04:23:33.562Z,3.08
2019-05-17T04:25:58.568Z,2.25
2019-05-17T04:28:25.955Z,3.25
2019-05-17T04:30:52.905Z,3.17
2019-05-17T04:33:19.440Z,2.90
2019-05-17T04:35:47.564Z,2.58
2019-05-17T04:38:13.976Z,3.12
2019-05-17T04:40:43.169Z,3.35
2019-05-17T04:43:08.701Z,3.20
2019-05-17T04:45:35.054Z,5.40
2019-05-17T04:48:04.109Z,4.85
2019-05-17T04:50:29.759Z,5.28
2019-05-17T04:52:56.105Z,4.42
2019-05-17T04:55:23.164Z,4.05
2019-05-17T04:57:52.948Z,4.33
2019-05-17T05:00:18.866Z,4.35
2019-05-17T05:02:45.330Z,3.47
2019-05-17T05:05:13.398Z,4.42
2019-05-17T05:07:42.853Z,3.37
2019-05-17T05:10:08.905Z,5.28
2019-05-17T05:12:35.261Z,12.75
2019-05-17T05:15:03.469Z,9.15
2019-05-17T05:17:32.965Z,6.37
2019-05-17T05:20:02.506Z,5.55
2019-05-17T05:22:27.890Z,7.35
2019-05-17T05:24:55.429Z,6.15
2019-05-17T05:27:22.353Z,7.42
2019-05-17T05:29:52.182Z,7.20
2019-05-17T05:32:18.766Z,7.03
2019-05-17T05:34:46.473Z,6.37
2019-05-17T05:37:14.652Z,16.55
2019-05-17T05:39:41.465Z,20.62
2019-05-17T05:42:11.540Z,9.05
2019-05-17T05:44:36.172Z,8.83
2019-05-17T05:47:02.658Z,5.17
2019-05-17T05:49:31.926Z,6.50
2019-05-17T05:51:58.480Z,5.85
2019-05-17T05:54:26.593Z,6.22
2019-05-17T05:56:52.943Z,8.83
2019-05-17T05:59:19.352Z,8.05
2019-05-17T06:01:45.846Z,8.48
2019-05-17T06:04:12.262Z,7.33
2019-05-17T06:06:41.660Z,7.12
2019-05-17T06:09:07.989Z,6.92
2019-05-17T06:11:34.531Z,5.00
2019-05-17T06:14:01.741Z,8.30
2019-05-17T06:16:29.296Z,5.95
2019-05-17T06:18:55.831Z,6.75
2019-05-17T06:21:23.247Z,5.92
2019-05-17T06:23:51.632Z,7.12
2019-05-17T06:26:18.282Z,5.72
2019-05-17T06:28:44.640Z,5.20
2019-05-17T06:31:11.025Z,6.25
2019-05-17T06:33:37.442Z,6.10
2019-05-17T06:36:03.885Z,2.45
2019-05-17T06:38:32.935Z,4.47
2019-05-17T06:41:01.457Z,6.05
2019-05-17T06:43:27.595Z,5.87
2019-05-17T06:45:54.093Z,3.72
2019-05-17T06:48:22.519Z,4.75
2019-05-17T06:50:48.642Z,4.08
2019-05-17T06:53:15.028Z,4.33
2019-05-17T06:55:42.567Z,2.33
2019-05-17T06:58:11.614Z,4.03
2019-05-17T07:00:40.406Z,3.17
2019-05-17T07:03:09.536Z,2.87
2019-05-17T07:05:40.202Z,3.27
2019-05-17T07:08:06.300Z,3.85
2019-05-17T07:10:32.732Z,3.47
2019-05-17T07:13:01.930Z,2.98
2019-05-17T07:15:40.057Z,3.10
2019-05-17T07:17:55.696Z,3.00
2019-05-17T07:20:23.026Z,2.40
2019-05-17T07:22:50.702Z,3.58
2019-05-17T07:25:19.634Z,2.95
2019-05-17T07:27:46.111Z,2.67
2019-05-17T07:30:12.537Z,2.50
2019-05-17T07:32:40.677Z,1.80
2019-05-17T07:35:10.411Z,2.20
2019-05-17T07:37:36.004Z,2.17
2019-05-17T07:40:06.384Z,1.07
2019-05-17T07:45:00.511Z,2.08
2019-05-17T07:47:29.295Z,2.77
2019-05-17T07:49:55.512Z,2.35
2019-05-17T07:52:21.928Z,2.12
2019-05-17T07:54:50.697Z,1.47
2019-05-17T07:57:16.558Z,2.67
2019-05-17T07:59:43.576Z,2.42
2019-05-17T08:02:11.076Z,2.15
2019-05-17T08:04:37.532Z,1.95
2019-05-17T08:07:04.030Z,1.22
2019-05-17T08:09:30.494Z,1.80
2019-05-17T08:11:59.580Z,1.22
2019-05-17T08:14:30.107Z,1.92
2019-05-17T08:16:53.776Z,1.27
2019-05-17T08:19:20.502Z,1.22
2019-05-17T08:21:46.936Z,0.78
2019-05-17T08:24:13.461Z,1.50
2019-05-17T08:26:40.412Z,1.72
2019-05-17T08:29:06.890Z,2.35
2019-05-17T08:31:33.920Z,2.75
2019-05-17T08:34:00.355Z,2.17
2019-05-17T08:36:26.887Z,2.55
2019-05-17T08:38:55.022Z,1.65
2019-05-17T08:41:22.505Z,2.25
2019-05-17T08:43:51.115Z,2.60
2019-05-17T08:46:19.899Z,2.25
2019-05-17T08:48:46.426Z,2.00
2019-05-17T08:51:12.823Z,0.98
2019-05-17T08:53:39.888Z,1.95
2019-05-17T08:56:06.399Z,1.87
2019-05-17T08:58:32.833Z,0.60
2019-05-17T09:01:00.332Z,2.02
2019-05-17T09:03:27.201Z,2.58
2019-05-17T09:05:53.603Z,1.07
2019-05-17T09:08:21.002Z,1.57
2019-05-17T09:10:50.306Z,2.25
2019-05-17T09:13:15.734Z,2.12
2019-05-17T09:15:42.204Z,1.57
2019-05-17T09:18:09.871Z,2.17
2019-05-17T09:20:36.470Z,2.90
2019-05-17T09:23:02.965Z,1.27
2019-05-17T09:25:30.206Z,1.45
2019-05-17T09:27:56.831Z,1.40
2019-05-17T09:30:25.574Z,1.40
2019-05-17T09:32:51.558Z,2.00
2019-05-17T09:35:20.776Z,0.65
2019-05-17T09:37:49.694Z,0.53
2019-05-17T09:40:15.067Z,1.50
2019-05-17T09:42:41.786Z,1.37
2019-05-17T09:45:09.682Z,1.77
2019-05-17T09:47:36.341Z,0.90
2019-05-17T09:50:04.868Z,2.45
2019-05-17T09:52:32.425Z,2.50
2019-05-17T09:55:00.559Z,2.12
2019-05-17T09:57:27.068Z,2.22
2019-05-17T09:59:55.900Z,2.12
2019-05-17T10:02:21.736Z,1.02
2019-05-17T10:04:50.223Z,3.02
2019-05-17T10:07:17.053Z,2.80
2019-05-17T10:09:43.645Z,1.75
2019-05-17T10:12:09.965Z,1.72
2019-05-17T10:14:38.185Z,1.25
2019-05-17T10:17:04.773Z,1.65
2019-05-17T10:19:31.329Z,2.22
2019-05-17T10:21:59.649Z,1.90
2019-05-17T10:24:35.977Z,0.82
2019-05-17T10:26:54.349Z,2.12
2019-05-17T10:29:20.789Z,0.93
2019-05-17T10:31:47.213Z,1.75
2019-05-17T10:34:13.660Z,1.50
2019-05-17T10:36:40.345Z,1.82
2019-05-17T10:39:06.977Z,0.98
2019-05-17T10:41:33.522Z,1.55
2019-05-17T10:44:01.013Z,1.65
2019-05-17T10:46:29.814Z,1.82
2019-05-17T10:48:55.644Z,1.70
2019-05-17T10:51:22.081Z,0.90
2019-05-17T10:53:51.067Z,1.60
2019-05-17T10:56:16.775Z,0.93
2019-05-17T10:58:44.172Z,1.10
2019-05-17T11:01:10.579Z,1.72
2019-05-17T11:03:39.575Z,1.02
2019-05-17T11:06:05.271Z,1.40
2019-05-17T11:08:31.705Z,0.93
2019-05-17T11:10:59.587Z,1.12
2019-05-17T11:13:26.256Z,1.52
2019-05-17T11:15:52.804Z,1.55
2019-05-17T11:18:19.220Z,1.32
2019-05-17T11:20:46.574Z,1.52
2019-05-17T11:23:12.892Z,0.40
2019-05-17T11:25:45.003Z,1.65
2019-05-17T11:28:07.533Z,1.00
2019-05-17T11:30:34.090Z,0.53
2019-05-17T11:33:00.462Z,0.90
2019-05-17T11:35:26.999Z,0.90
2019-05-17T11:37:53.363Z,1.00
2019-05-17T11:40:19.759Z,0.80
2019-05-17T11:42:47.412Z,1.00
2019-05-17T11:45:27.216Z,0.78
2019-05-17T11:47:44.113Z,0.95
2019-05-17T11:50:10.632Z,1.32
2019-05-17T11:52:36.908Z,0.60
2019-05-17T11:55:04.363Z,0.65
2019-05-17T11:57:30.810Z,0.50
2019-05-17T11:59:57.237Z,1.17
2019-05-17T12:02:23.701Z,0.70
2019-05-17T12:04:51.047Z,1.12
2019-05-17T12:07:17.472Z,0.78
2019-05-17T12:09:43.912Z,1.00
2019-05-17T12:12:10.327Z,1.07
2019-05-17T12:14:37.014Z,0.78
2019-05-17T12:17:03.466Z,0.80
2019-05-17T12:19:29.881Z,0.75
2019-05-17T12:21:56.340Z,1.00
2019-05-17T12:24:22.738Z,1.10
2019-05-17T12:26:49.324Z,1.00
2019-05-17T12:29:15.776Z,0.78
2019-05-17T12:31:43.180Z,1.30
2019-05-17T12:34:09.642Z,0.98
2019-05-17T12:36:36.061Z,1.22
2019-05-17T12:39:04.358Z,1.00
2019-05-17T12:41:31.134Z,1.12
2019-05-17T12:43:57.673Z,1.05
2019-05-17T12:46:26.828Z,1.12
2019-05-17T12:48:55.064Z,1.00
2019-05-17T12:51:21.489Z,0.65
2019-05-17T12:53:47.937Z,0.33
2019-05-17T12:56:14.405Z,1.17
2019-05-17T12:58:40.833Z,1.50
2019-05-17T13:01:07.408Z,1.52
2019-05-17T13:03:33.931Z,1.32
2019-05-17T13:06:00.313Z,0.68
2019-05-17T13:08:26.686Z,1.60
2019-05-17T13:10:54.105Z,0.82
2019-05-17T13:13:20.543Z,1.55
2019-05-17T13:15:47.002Z,0.53
2019-05-17T13:18:13.766Z,0.20
2019-05-17T13:20:40.155Z,0.13
2019-05-17T13:23:07.727Z,1.12
2019-05-17T13:25:34.112Z,0.90
2019-05-17T13:28:01.494Z,0.90
2019-05-17T13:30:27.939Z,1.37
2019-05-17T13:32:55.324Z,1.30
2019-05-17T13:35:21.705Z,1.20
2019-05-17T13:37:47.990Z,1.25
2019-05-17T13:40:14.300Z,1.00
2019-05-17T13:42:40.817Z,0.53
2019-05-17T13:45:07.683Z,1.30
2019-05-17T13:47:35.091Z,1.05
2019-05-17T13:50:01.879Z,1.45
2019-05-17T13:52:28.335Z,1.10
2019-05-17T13:54:54.971Z,0.80
2019-05-17T13:57:21.232Z,0.33
2019-05-17T13:59:47.589Z,1.17
2019-05-17T14:02:14.152Z,0.78
2019-05-17T14:04:40.593Z,0.95
2019-05-17T14:07:06.998Z,0.90
2019-05-17T14:09:33.421Z,0.25
2019-05-17T14:11:59.861Z,1.77
2019-05-17T14:14:26.284Z,1.40
2019-05-17T14:16:54.554Z,1.40
2019-05-17T14:19:20.954Z,1.00
2019-05-17T14:21:47.467Z,1.20
2019-05-17T14:24:14.062Z,1.05
2019-05-17T14:26:40.480Z,0.70
2019-05-17T14:29:06.877Z,1.00
2019-05-17T14:31:33.339Z,1.02
2019-05-17T14:33:59.880Z,0.35
2019-05-17T14:36:26.238Z,1.40
2019-05-17T14:38:52.877Z,1.10
2019-05-17T14:41:19.328Z,0.78
2019-05-17T14:43:45.804Z,1.02
2019-05-17T14:46:12.261Z,1.15
2019-05-17T14:48:40.449Z,1.00
2019-05-17T14:51:06.860Z,1.30
2019-05-17T14:53:34.050Z,1.20
2019-05-17T14:56:00.478Z,1.27
2019-05-17T14:58:27.013Z,1.00
2019-05-17T15:00:54.457Z,1.32
2019-05-17T15:03:20.832Z,0.65
2019-05-17T15:05:47.265Z,0.88
2019-05-17T15:08:13.682Z,0.90
2019-05-17T15:10:40.529Z,1.17
2019-05-17T15:13:06.988Z,0.45
2019-05-17T15:15:33.538Z,1.02
2019-05-17T15:17:59.976Z,0.88
2019-05-17T15:20:26.449Z,0.75
2019-05-17T15:22:53.729Z,0.65
2019-05-17T15:25:20.141Z,0.82
2019-05-17T15:27:46.472Z,1.60
2019-05-17T15:30:12.879Z,0.65
2019-05-17T15:32:39.285Z,1.05
2019-05-17T15:35:06.196Z,1.05
2019-05-17T15:37:32.629Z,1.60
2019-05-17T15:39:59.084Z,1.20
2019-05-17T15:42:25.582Z,1.12
2019-05-17T15:44:52.872Z,1.37
2019-05-17T15:47:19.352Z,1.07
2019-05-17T15:49:47.432Z,1.32
2019-05-17T15:52:13.922Z,1.15
2019-05-17T15:54:40.547Z,1.30
2019-05-17T15:57:07.126Z,0.93
2019-05-17T15:59:33.576Z,0.98
2019-05-17T16:01:59.945Z,0.95
2019-05-17T16:04:26.292Z,1.12
2019-05-17T16:06:53.786Z,1.52
2019-05-17T16:09:20.179Z,1.25
2019-05-17T16:11:46.621Z,1.50
2019-05-17T16:14:13.034Z,1.62
2019-05-17T16:16:39.491Z,0.75
2019-05-17T16:19:05.882Z,0.93
2019-05-17T16:21:32.320Z,1.10
2019-05-17T16:23:58.855Z,0.78
2019-05-17T16:26:25.231Z,1.40
2019-05-17T16:28:52.564Z,1.32
2019-05-17T16:31:18.944Z,0.93
2019-05-17T16:33:50.852Z,0.25
2019-05-17T16:36:16.549Z,0.75
2019-05-17T16:38:42.915Z,0.70
2019-05-17T16:41:09.348Z,0.62
2019-05-17T16:43:35.799Z,0.55
2019-05-17T16:46:02.257Z,1.20
2019-05-17T16:48:28.661Z,0.80
2019-05-17T16:50:57.838Z,0.70
2019-05-17T16:53:24.380Z,1.12
2019-05-17T16:55:50.805Z,0.47
2019-05-17T16:58:17.288Z,1.10
2019-05-17T17:00:45.098Z,0.82
2019-05-17T17:03:11.536Z,0.62
2019-05-17T17:05:38.056Z,0.62
2019-05-17T17:08:04.763Z,0.53
2019-05-17T17:10:31.099Z,0.60
2019-05-17T17:12:58.484Z,1.15
2019-05-17T17:15:25.871Z,0.80
2019-05-17T17:17:52.250Z,0.90
2019-05-17T17:20:18.689Z,1.30
2019-05-17T17:22:45.105Z,0.90
2019-05-17T17:25:11.568Z,0.98
2019-05-17T17:27:37.985Z,0.62
2019-05-17T17:30:06.411Z,1.32
2019-05-17T17:32:32.963Z,0.62
2019-05-17T17:35:00.352Z,0.60
2019-05-17T17:37:26.742Z,0.60
2019-05-17T17:39:53.482Z,0.42
2019-05-17T17:42:19.941Z,0.60
2019-05-17T17:44:46.327Z,0.70
2019-05-17T17:47:12.845Z,0.98
2019-05-17T17:49:39.290Z,0.85
2019-05-17T17:52:06.692Z,0.78
2019-05-17T17:54:33.109Z,0.47
2019-05-17T17:57:01.294Z,0.60
2019-05-17T17:59:27.707Z,0.33
2019-05-17T18:01:54.194Z,0.68
2019-05-17T18:04:20.826Z,0.75
2019-05-17T18:06:47.114Z,0.90
2019-05-17T18:09:14.529Z,0.93
2019-05-17T18:11:40.985Z,1.10
2019-05-17T18:14:13.341Z,0.75
2019-05-17T18:16:35.975Z,0.78
2019-05-17T18:19:02.660Z,0.85
2019-05-17T18:21:28.951Z,0.72
2019-05-17T18:23:55.272Z,0.80
2019-05-17T18:26:21.784Z,0.70
2019-05-17T18:28:48.266Z,1.02
2019-05-17T18:31:15.630Z,0.62
2019-05-17T18:33:42.060Z,0.62
2019-05-17T18:36:08.599Z,0.90
2019-05-17T18:38:35.049Z,0.80
2019-05-17T18:41:02.483Z,1.30
2019-05-17T18:43:28.947Z,1.00
2019-05-17T18:45:55.320Z,1.00
2019-05-17T18:48:21.791Z,0.60
2019-05-17T18:50:48.237Z,0.30
2019-05-17T18:53:16.967Z,0.82
2019-05-17T18:55:43.786Z,0.75
2019-05-17T18:58:10.250Z,1.05
2019-05-17T19:00:36.557Z,0.65
2019-05-17T19:03:04.034Z,0.55
2019-05-17T19:05:30.412Z,0.80
2019-05-17T19:07:56.866Z,1.32
2019-05-17T19:10:23.432Z,1.17
2019-05-17T19:12:49.843Z,0.95
2019-05-17T19:15:16.246Z,0.00
2019-05-17T19:17:42.730Z,1.20
2019-05-17T19:20:09.076Z,0.90
2019-05-17T19:22:35.506Z,0.78
2019-05-17T19:25:04.860Z,0.62
2019-05-17T19:27:31.376Z,0.93
2019-05-17T19:29:57.782Z,1.00
2019-05-17T19:32:24.263Z,1.17
2019-05-17T19:34:50.787Z,0.95
2019-05-17T19:37:17.209Z,1.12
2019-05-17T19:39:43.736Z,0.60
2019-05-17T19:42:10.148Z,1.05
2019-05-17T19:44:36.685Z,1.00
2019-05-17T19:47:04.124Z,1.17
2019-05-17T19:49:30.630Z,1.00
2019-05-17T19:51:57.168Z,0.93
2019-05-17T19:54:25.369Z,0.50
2019-05-17T19:56:52.792Z,0.82
2019-05-17T19:59:19.197Z,1.27
2019-05-17T20:01:45.762Z,1.17
2019-05-17T20:04:12.192Z,0.82
2019-05-17T20:06:38.781Z,0.98
2019-05-17T20:09:06.376Z,0.88
2019-05-17T20:11:34.669Z,0.88
2019-05-17T20:14:01.169Z,0.95
2019-05-17T20:16:28.158Z,1.15
2019-05-17T20:18:54.613Z,1.02
2019-05-17T20:21:20.992Z,0.95
2019-05-17T20:23:47.507Z,0.90
2019-05-17T20:26:13.868Z,1.25
2019-05-17T20:28:40.461Z,0.65
2019-05-17T20:31:07.627Z,1.10
2019-05-17T20:33:33.958Z,1.17
2019-05-17T20:36:00.325Z,1.47
2019-05-17T20:38:26.644Z,0.85
2019-05-17T20:40:53.598Z,0.72
2019-05-17T20:43:20.351Z,1.15
2019-05-17T20:45:46.754Z,1.05
2019-05-17T20:48:13.662Z,1.22
2019-05-17T20:50:40.059Z,0.85
2019-05-17T20:53:18.490Z,1.72
2019-05-17T20:55:36.823Z,1.45
2019-05-17T20:58:03.158Z,1.25
2019-05-17T21:00:29.737Z,1.52
2019-05-17T21:02:56.102Z,1.30
2019-05-17T21:05:22.478Z,1.55
2019-05-17T21:07:49.012Z,1.22
2019-05-17T21:10:15.590Z,1.50
2019-05-17T21:12:42.198Z,1.65
2019-05-17T21:15:09.037Z,1.37
2019-05-17T21:17:35.502Z,1.40
2019-05-17T21:20:04.496Z,1.65
2019-05-17T21:22:30.867Z,1.42
2019-05-17T21:24:57.330Z,2.08
2019-05-17T21:27:23.720Z,1.55
2019-05-17T21:29:50.124Z,1.27
2019-05-17T21:32:16.422Z,1.02
2019-05-17T21:34:42.849Z,1.30
2019-05-17T21:37:10.947Z,7.67
2019-05-17T21:39:37.332Z,50.43
2019-05-17T21:42:03.808Z,15.95
2019-05-17T21:44:30.128Z,6.22
2019-05-17T21:47:04.326Z,1.75
2019-05-17T21:49:24.795Z,1.55
2019-05-17T21:51:51.240Z,1.57
2019-05-17T21:54:17.691Z,1.15
2019-05-17T21:56:45.844Z,1.15
2019-05-17T21:59:13.286Z,1.35
2019-05-17T22:01:39.853Z,1.77
2019-05-17T22:04:06.279Z,1.45
2019-05-17T22:06:32.749Z,1.12
2019-05-17T22:08:59.392Z,1.47
2019-05-17T22:11:25.815Z,1.47
2019-05-17T22:13:52.292Z,1.60
2019-05-17T22:16:20.119Z,1.65
2019-05-17T22:18:46.717Z,2.08
2019-05-17T22:21:14.160Z,1.50
2019-05-17T22:23:40.568Z,1.67
2019-05-17T22:26:06.950Z,2.12
2019-05-17T22:28:33.445Z,2.25
2019-05-17T22:30:59.832Z,2.10
2019-05-17T22:33:26.297Z,2.10
2019-05-17T22:35:52.708Z,2.25
2019-05-17T22:38:19.351Z,2.30
2019-05-17T22:40:45.832Z,1.35
2019-05-17T22:43:13.938Z,2.08
2019-05-17T22:45:40.418Z,2.00
2019-05-17T22:48:06.781Z,2.45
2019-05-17T22:50:33.298Z,2.40
2019-05-17T22:52:59.712Z,2.60
2019-05-17T22:55:26.290Z,2.58
2019-05-17T22:57:53.694Z,2.15
2019-05-17T23:00:20.057Z,1.90
2019-05-17T23:02:46.491Z,2.22
2019-05-17T23:05:14.038Z,2.80
2019-05-17T23:07:40.472Z,2.58
2019-05-17T23:10:07.358Z,2.33
2019-05-17T23:12:33.773Z,1.98
2019-05-17T23:15:00.211Z,2.22
2019-05-17T23:17:26.762Z,2.35
2019-05-17T23:19:53.214Z,2.25
2019-05-17T23:22:19.687Z,2.77
2019-05-17T23:24:46.151Z,3.37
2019-05-17T23:27:14.412Z,2.02
2019-05-17T23:29:41.316Z,1.60
2019-05-17T23:32:07.769Z,2.08
2019-05-17T23:34:34.299Z,1.77
2019-05-17T23:37:00.720Z,2.67
2019-05-17T23:39:27.150Z,2.60
2019-05-17T23:41:53.636Z,2.98
2019-05-17T23:44:19.996Z,2.55
2019-05-17T23:46:46.271Z,2.22
2019-05-17T23:49:13.642Z,2.45
2019-05-17T23:51:40.087Z,3.05
2019-05-17T23:54:06.664Z,3.12
2019-05-17T23:56:33.031Z,2.98
2019-05-17T23:59:01.947Z,2.58
